CheckWX is a tool to help pilots better visualize weather data.  It is not intended as a substitute for an official pre-flight weather briefing.

18:37:10 UTC

KMVH METAR
N Bar Ranch Airport
Grassrange, Montana, USA
Current

22 mins ago

KMVH 171815Z AUTO 31020KT 6SM HZ SCT026 BKN039 OVC090 M17/M23 A3010 RMK AO2
Observed
Feb-17 @ 18:15 UTC
Wind
  • 310° at 20 KTS
Visibility
6 SM
Flight Rules
VFR
Conditions
Haze
Cloud Levels
  • Scattered at 2,600' AGL
  • Broken at 3,900' AGL
  • Overcast at 9,000' AGL
Temperature
-17°C / 1°F
Dewpoint
-23°C / -9°F
Humidity
60%
Altimeter
30.1" Hg
Pressure
1019.32 hPa
Previous

1 hour ago

KMVH 171735Z AUTO 29017G24KT 5SM HZ BKN030 OVC035 M17/M24 A3009 RMK AO2
Observed
Feb-17 @ 17:35 UTC
Wind
  • 290° at 17 KTS
  • Gusting to 24 KTS
Visibility
5 SM
Flight Rules
MVFR
Conditions
Haze
Cloud Levels
  • Broken at 3,000' AGL
  • Overcast at 3,500' AGL
Temperature
-17°C / 1°F
Dewpoint
-24°C / -11°F
Humidity
55%
Altimeter
30.09" Hg
Pressure
1018.92 hPa
Previous

2 hours ago

KMVH 171655Z AUTO 30016KT 6SM -SN BKN042 BKN050 M18/M24 A3008 RMK AO2
Observed
Feb-17 @ 16:55 UTC
Wind
  • 300° at 16 KTS
Visibility
6 SM
Flight Rules
VFR
Conditions
Light Snow
Cloud Levels
  • Broken at 4,200' AGL
  • Broken at 5,000' AGL
Temperature
-18°C / -0°F
Dewpoint
-24°C / -11°F
Humidity
60%
Altimeter
30.08" Hg
Pressure
1018.62 hPa